Time;durP1;ratioP1;P1;durP2;ratioP2;P2;SDS_P1;SDS_P2;PMS_P1;PMS_P2;Temp;Humidity;BMP_temperature;BMP_pressure;BME280_temperature;BME280_humidity;BME280_pressure;Samples;Min_cycle;Max_cycle;Signal;HPM_P1;HPM_P2
2022/07/15 00:02:13;;;;;;;;;0.00;0.00;;;;;17.71;53.52;102280.97;5021452;28;9696;-65
2022/07/15 00:04:41;;;;;;;;;0.50;0.00;;;;;17.70;53.35;102282.03;5016330;28;8850;-66
2022/07/15 00:07:07;;;;;;;;;1.00;1.00;;;;;17.67;53.67;102284.31;5010960;28;8997;-65
2022/07/15 00:12:19;;;;;;;;;0.00;0.00;;;;;17.67;53.35;102273.44;5010136;28;8913;-66
2022/07/15 00:14:46;;;;;;;;;1.00;0.00;;;;;17.64;53.32;102277.38;4993384;28;8838;-66
2022/07/15 00:17:12;;;;;;;;;0.00;0.00;;;;;17.62;53.46;102279.47;5010369;28;8852;-65
2022/07/15 00:19:39;;;;;;;;;0.00;0.00;;;;;17.65;53.63;102281.78;5013007;28;8893;-66
2022/07/15 00:22:05;;;;;;;;;0.00;0.00;;;;;17.66;53.24;102277.16;4988679;28;8941;-66
2022/07/15 00:24:32;;;;;;;;;0.75;0.25;;;;;17.61;53.52;102280.50;5002578;28;9604;-65
2022/07/15 00:26:59;;;;;;;;;0.00;0.00;;;;;17.53;53.74;102280.72;5010396;28;8862;-66
2022/07/15 00:29:28;;;;;;;;;1.00;1.00;;;;;17.55;54.11;102281.34;4999673;28;8981;-65
2022/07/15 00:31:54;;;;;;;;;0.00;0.00;;;;;17.58;54.14;102277.38;5009385;28;8908;-66
2022/07/15 00:34:21;;;;;;;;;0.25;0.25;;;;;17.58;53.94;102275.47;4993191;28;8842;-66
2022/07/15 00:36:48;;;;;;;;;2.00;0.75;;;;;17.58;54.04;102274.63;5010370;28;8911;-66
2022/07/15 00:39:16;;;;;;;;;1.00;0.00;;;;;17.52;54.28;102273.59;4993433;28;8881;-66
2022/07/15 00:41:43;;;;;;;;;1.25;0.50;;;;;17.48;54.59;102273.16;5010485;28;9031;-66
2022/07/15 00:44:11;;;;;;;;;0.00;0.00;;;;;17.43;54.52;102269.38;5003486;28;8868;-66
2022/07/15 00:46:39;;;;;;;;;2.25;1.50;;;;;17.44;54.69;102265.59;5000853;28;8950;-66
2022/07/15 00:49:07;;;;;;;;;1.00;0.00;;;;;17.35;54.62;102262.25;5009785;28;8976;-65
2022/07/15 00:51:37;;;;;;;;;1.25;1.00;;;;;17.37;54.73;102267.47;5009005;28;8837;-66
2022/07/15 00:54:05;;;;;;;;;2.33;1.00;;;;;17.39;54.66;102271.69;5011080;28;8833;-66
2022/07/15 00:56:37;;;;;;;;;2.00;1.00;;;;;17.33;54.48;102263.47;5015544;28;8934;-66
2022/07/15 00:59:06;;;;;;;;;0.00;0.00;;;;;17.34;54.69;102249.69;5000490;28;8858;-65
2022/07/15 01:01:34;;;;;;;;;0.33;0.33;;;;;17.35;54.48;102256.78;5014100;28;9631;-66
2022/07/15 01:04:03;;;;;;;;;1.00;0.00;;;;;17.36;54.68;102260.34;4999586;28;8933;-65
2022/07/15 01:06:30;;;;;;;;;0.00;0.00;;;;;17.32;54.68;102261.81;5008458;28;9637;-65
2022/07/15 01:08:57;;;;;;;;;0.00;0.00;;;;;17.27;54.39;102259.69;5006534;28;9587;-64
2022/07/15 01:11:24;;;;;;;;;0.00;0.00;;;;;17.26;54.87;102264.31;4992323;28;8850;-65
2022/07/15 01:13:51;;;;;;;;;1.00;1.00;;;;;17.22;54.89;102262.19;5009011;28;8951;-65
2022/07/15 01:16:18;;;;;;;;;1.00;1.00;;;;;17.24;54.65;102258.22;5027630;28;8843;-65
2022/07/15 01:18:44;;;;;;;;;0.00;0.00;;;;;17.28;54.39;102262.19;5002073;28;8858;-66
2022/07/15 01:21:12;;;;;;;;;0.00;0.00;;;;;17.33;54.22;102263.47;4991860;28;8854;-66
2022/07/15 01:23:42;;;;;;;;;0.25;0.00;;;;;17.33;54.49;102260.75;4987475;28;8864;-66
2022/07/15 01:26:29;;;;;;;;;0.00;0.00;;;;;17.33;54.54;102267.03;4990307;28;8864;-66
2022/07/15 01:28:56;;;;;;;;;0.75;0.75;;;;;17.32;54.52;102265.34;4976071;28;8854;-65
2022/07/15 01:31:23;;;;;;;;;0.00;0.00;;;;;17.29;54.67;102271.22;4993556;28;8886;-66
2022/07/15 01:33:52;;;;;;;;;0.00;0.00;;;;;17.20;54.28;102262.38;5008321;28;8912;-64
2022/07/15 01:36:19;;;;;;;;;1.00;1.00;;;;;17.13;54.73;102269.69;5010083;28;8861;-67
2022/07/15 01:38:52;;;;;;;;;0.75;0.00;;;;;17.09;54.85;102271.13;5008422;28;8976;-67
2022/07/15 01:41:39;;;;;;;;;0.00;0.00;;;;;17.10;54.58;102272.00;4993065;28;9532;-66
2022/07/15 01:44:13;;;;;;;;;0.00;0.00;;;;;17.10;54.86;102274.72;5011164;28;8866;-66
2022/07/15 01:46:42;;;;;;;;;1.00;1.00;;;;;17.08;54.73;102268.63;4991707;28;9082;-65
2022/07/15 01:49:21;;;;;;;;;0.00;0.00;;;;;17.09;54.32;102262.97;4977881;28;8940;-65
2022/07/15 01:52:09;;;;;;;;;0.00;0.00;;;;;17.09;54.40;102271.13;5029637;28;8933;-65
2022/07/15 01:54:36;;;;;;;;;0.00;0.00;;;;;17.13;54.58;102268.84;5004515;28;8898;-66
2022/07/15 01:57:03;;;;;;;;;0.00;0.00;;;;;17.14;53.93;102265.94;5008392;28;8969;-65
2022/07/15 01:59:35;;;;;;;;;1.00;0.00;;;;;17.14;53.63;102267.81;4998730;28;8990;-65
2022/07/15 02:02:02;;;;;;;;;0.00;0.00;;;;;17.11;54.03;102269.06;5031981;28;9181;-65
2022/07/15 02:04:28;;;;;;;;;0.00;0.00;;;;;17.10;53.89;102267.38;5010755;28;9071;-66
2022/07/15 02:06:55;;;;;;;;;0.00;0.00;;;;;17.07;53.99;102266.94;5012086;28;8848;-65
2022/07/15 02:09:23;;;;;;;;;0.00;0.00;;;;;17.03;54.04;102267.34;5028351;28;8853;-65
2022/07/15 02:11:52;;;;;;;;;0.00;0.00;;;;;17.00;53.78;102256.84;5007063;28;8999;-65
2022/07/15 02:14:21;;;;;;;;;0.00;0.00;;;;;17.00;53.55;102262.28;5012566;28;9039;-65
2022/07/15 02:16:49;;;;;;;;;0.00;0.00;;;;;17.02;53.88;102259.41;5013267;28;8958;-65
2022/07/15 02:19:21;;;;;;;;;0.00;0.00;;;;;17.04;53.36;102260.00;5011796;28;8962;-64
2022/07/15 02:21:48;;;;;;;;;0.33;0.33;;;;;17.09;53.64;102264.84;5011983;28;8933;-65
2022/07/15 02:24:14;;;;;;;;;0.00;0.00;;;;;17.06;53.31;102263.38;5012642;28;9061;-65
2022/07/15 02:26:43;;;;;;;;;1.00;0.00;;;;;17.04;53.43;102262.75;5006615;28;8999;-65
2022/07/15 02:29:10;;;;;;;;;0.67;0.67;;;;;17.03;53.48;102261.06;5009199;28;8845;-65
2022/07/15 02:31:36;;;;;;;;;0.00;0.00;;;;;17.01;53.18;102268.56;5013734;28;8941;-65
2022/07/15 02:34:04;;;;;;;;;0.00;0.00;;;;;16.98;53.27;102271.72;5019274;28;9064;-65
2022/07/15 02:36:30;;;;;;;;;0.00;0.00;;;;;16.97;53.34;102267.31;5004147;28;9034;-64
2022/07/15 02:38:57;;;;;;;;;0.00;0.00;;;;;16.97;53.58;102265.41;5011315;28;9005;-64
2022/07/15 02:41:24;;;;;;;;;0.00;0.00;;;;;16.94;53.18;102265.84;4995393;28;8870;-65
2022/07/15 02:43:52;;;;;;;;;0.00;0.00;;;;;16.94;53.53;102270.44;5010734;28;8830;-66
2022/07/15 02:46:18;;;;;;;;;0.00;0.00;;;;;16.94;53.84;102268.56;5002992;28;8837;-66
2022/07/15 02:48:46;;;;;;;;;0.00;0.00;;;;;16.93;53.68;102268.75;5023546;28;9762;-66
2022/07/15 02:51:13;;;;;;;;;0.00;0.00;;;;;16.92;53.66;102267.06;5020073;28;8849;-66
2022/07/15 02:53:41;;;;;;;;;0.00;0.00;;;;;16.92;53.88;102272.50;5012345;28;8909;-66
2022/07/15 02:56:12;;;;;;;;;1.00;0.00;;;;;16.87;54.22;102273.13;4996189;28;9777;-66
2022/07/15 02:58:38;;;;;;;;;0.00;0.00;;;;;16.87;53.83;102269.56;4993435;28;9004;-65
2022/07/15 03:01:06;;;;;;;;;0.00;0.00;;;;;16.87;54.37;102275.84;5007644;28;9251;-66
2022/07/15 03:03:33;;;;;;;;;0.00;0.00;;;;;16.86;54.36;102268.72;4997509;28;9726;-65
2022/07/15 03:06:01;;;;;;;;;0.00;0.00;;;;;16.84;54.23;102272.69;5010914;28;9094;-65
2022/07/15 03:08:27;;;;;;;;;0.00;0.00;;;;;16.79;54.63;102274.13;5006514;28;9007;-66
2022/07/15 03:10:54;;;;;;;;;1.00;0.00;;;;;16.79;54.52;102284.16;5002328;28;8938;-66
2022/07/15 03:13:20;;;;;;;;;0.00;0.00;;;;;16.81;54.43;102282.06;5008280;28;9565;-66
2022/07/15 03:15:47;;;;;;;;;0.00;0.00;;;;;16.82;54.65;102282.94;5008712;28;9022;-65
2022/07/15 03:18:13;;;;;;;;;0.33;0.33;;;;;16.80;54.91;102281.22;5013545;28;9001;-65
2022/07/15 03:20:40;;;;;;;;;0.00;0.00;;;;;16.77;55.10;102289.81;5017784;28;9067;-66
2022/07/15 03:23:14;;;;;;;;;0.00;0.00;;;;;16.77;54.81;102297.97;5011608;28;9155;-64
2022/07/15 03:25:41;;;;;;;;;0.00;0.00;;;;;16.74;55.09;102292.94;4993302;28;9062;-66
2022/07/15 03:28:10;;;;;;;;;0.00;0.00;;;;;16.75;55.11;102296.47;5010393;28;9833;-66
2022/07/15 03:30:38;;;;;;;;;0.00;0.00;;;;;16.73;55.41;102293.97;5012092;28;8912;-66
2022/07/15 03:33:05;;;;;;;;;0.00;0.00;;;;;16.71;55.64;102298.72;4993695;28;8941;-66
2022/07/15 03:35:32;;;;;;;;;0.00;0.00;;;;;16.68;55.57;102306.44;5006632;28;8984;-65
2022/07/15 03:37:59;;;;;;;;;0.00;0.00;;;;;16.63;55.81;102306.19;5012195;28;9057;-66
2022/07/15 03:40:25;;;;;;;;;0.00;0.00;;;;;16.60;55.97;102307.44;4995812;28;9088;-66
2022/07/15 03:42:52;;;;;;;;;0.00;0.00;;;;;16.56;56.02;102308.84;4997397;28;8847;-66
2022/07/15 03:45:19;;;;;;;;;0.00;0.00;;;;;16.52;55.94;102318.44;5020275;28;8918;-66
2022/07/15 03:47:50;;;;;;;;;0.00;0.00;;;;;16.49;56.14;102314.25;4992474;28;8959;-64
2022/07/15 03:50:17;;;;;;;;;0.00;0.00;;;;;16.48;56.11;102314.44;4998294;28;9055;-65
2022/07/15 03:52:43;;;;;;;;;0.00;0.00;;;;;16.46;56.36;102324.69;5010372;28;9172;-65
2022/07/15 03:55:10;;;;;;;;;1.00;0.00;;;;;16.42;56.38;102309.81;5011422;28;9078;-65
2022/07/15 03:57:37;;;;;;;;;0.00;0.00;;;;;16.41;56.59;102321.72;4993224;28;9098;-64
2022/07/15 04:00:05;;;;;;;;;0.00;0.00;;;;;16.38;56.68;102316.69;5001805;28;9044;-68
2022/07/15 04:02:40;;;;;;;;;0.00;0.00;;;;;16.38;57.03;102322.94;5017466;28;9073;-65
2022/07/15 04:05:13;;;;;;;;;0.00;0.00;;;;;16.38;56.62;102327.56;5006641;28;9000;-65
2022/07/15 04:07:40;;;;;;;;;0.00;0.00;;;;;16.38;57.01;102320.22;4993307;28;9068;-65
2022/07/15 04:10:06;;;;;;;;;0.33;0.33;;;;;16.37;56.95;102320.44;5019801;28;9014;-65
2022/07/15 04:12:33;;;;;;;;;0.00;0.00;;;;;16.38;56.72;102322.13;5013065;28;9729;-65
2022/07/15 04:14:59;;;;;;;;;0.00;0.00;;;;;16.36;57.03;102325.00;4998839;28;8906;-65
2022/07/15 04:17:26;;;;;;;;;2.00;0.00;;;;;16.35;57.26;102325.22;5010785;28;9074;-65
2022/07/15 04:19:53;;;;;;;;;0.00;0.00;;;;;16.33;57.36;102330.88;5000713;28;9044;-65
2022/07/15 04:22:20;;;;;;;;;0.00;0.00;;;;;16.34;57.12;102332.53;5008497;28;9032;-67
2022/07/15 04:24:49;;;;;;;;;0.00;0.00;;;;;16.35;57.61;102330.66;5012131;28;9156;-66
2022/07/15 04:27:17;;;;;;;;;0.67;0.00;;;;;16.35;57.20;102331.50;5022989;28;9800;-67
2022/07/15 04:29:44;;;;;;;;;0.00;0.00;;;;;16.34;57.65;102335.25;5005635;28;9116;-66
2022/07/15 04:32:12;;;;;;;;;0.00;0.00;;;;;16.33;57.68;102333.59;5017402;28;9190;-67
2022/07/15 04:34:43;;;;;;;;;0.00;0.00;;;;;16.34;57.50;102345.28;5023279;23;9315;-68
2022/07/15 04:37:10;;;;;;;;;0.00;0.00;;;;;16.34;57.60;102343.41;5009947;28;9155;-67
2022/07/15 04:39:38;;;;;;;;;1.00;1.00;;;;;16.34;57.70;102346.13;4985273;28;9967;-66
2022/07/15 04:42:05;;;;;;;;;1.00;0.00;;;;;16.35;57.78;102346.97;4997962;28;9235;-66
2022/07/15 04:44:35;;;;;;;;;3.00;0.00;;;;;16.36;57.63;102346.75;5004316;28;9175;-67
2022/07/15 04:47:05;;;;;;;;;0.67;0.67;;;;;16.38;58.02;102347.41;4970113;28;9009;-67
2022/07/15 04:52:24;;;;;;;;;0.67;0.67;;;;;16.42;57.85;102347.88;4989240;28;9219;-66
2022/07/15 04:54:51;;;;;;;;;0.00;0.00;;;;;16.43;58.03;102350.38;4989641;28;9302;-66
2022/07/15 04:57:18;;;;;;;;;0.67;0.33;;;;;16.44;58.19;102349.31;4990777;28;9921;-66
2022/07/15 04:59:45;;;;;;;;;1.00;1.00;;;;;16.45;58.05;102351.03;4989253;28;9174;-66
2022/07/15 05:02:15;;;;;;;;;0.33;0.00;;;;;16.47;58.12;102358.97;4964787;28;9261;-67
2022/07/15 05:04:46;;;;;;;;;0.00;0.00;;;;;16.47;58.17;102350.81;4980483;28;9070;-66
2022/07/15 05:07:14;;;;;;;;;0.00;0.00;;;;;16.50;58.36;102358.59;4972438;28;9001;-66
2022/07/15 05:09:43;;;;;;;;;0.00;0.00;;;;;16.52;58.23;102351.06;4989645;28;9023;-66
2022/07/15 05:12:10;;;;;;;;;1.00;1.00;;;;;16.53;58.26;102361.75;4957735;28;9960;-66
2022/07/15 05:14:53;;;;;;;;;0.33;0.33;;;;;16.55;58.42;102358.84;4988224;28;9202;-65
2022/07/15 05:17:19;;;;;;;;;0.00;0.00;;;;;16.59;57.73;102356.56;4989448;28;9162;-66
2022/07/15 05:19:46;;;;;;;;;0.00;0.00;;;;;16.62;57.59;102354.31;4973193;28;9021;-65
2022/07/15 05:22:18;;;;;;;;;0.67;0.67;;;;;16.64;57.44;102345.94;4967445;28;9140;-65
2022/07/15 05:24:46;;;;;;;;;0.00;0.00;;;;;16.65;57.43;102337.59;4974751;28;9830;-65
2022/07/15 05:27:16;;;;;;;;;0.00;0.00;;;;;16.69;57.33;102346.19;4957581;28;9018;-67
2022/07/15 05:29:46;;;;;;;;;0.00;0.00;;;;;16.72;56.80;102348.50;4962818;28;9011;-65
2022/07/15 05:32:12;;;;;;;;;0.00;0.00;;;;;16.74;56.39;102339.16;4965199;28;9167;-65
2022/07/15 05:34:39;;;;;;;;;2.00;0.00;;;;;16.80;56.21;102345.66;4974945;28;9244;-66
2022/07/15 05:37:08;;;;;;;;;0.00;0.00;;;;;16.88;56.66;102347.41;4975954;28;9170;-65
2022/07/15 05:39:35;;;;;;;;;1.00;1.00;;;;;16.99;56.64;102349.56;4993292;28;9035;-65
2022/07/15 05:42:02;;;;;;;;;0.00;0.00;;;;;17.20;56.60;102340.47;4973443;28;9097;-66
2022/07/15 05:44:30;;;;;;;;;0.00;0.00;;;;;17.47;56.21;102342.28;4961626;28;9019;-67
2022/07/15 05:46:57;;;;;;;;;1.00;1.00;;;;;17.75;55.27;102338.63;4970262;28;8928;-65
2022/07/15 05:49:24;;;;;;;;;0.00;0.00;;;;;18.01;54.38;102346.84;4992742;28;8950;-66
2022/07/15 05:51:53;;;;;;;;;1.00;1.00;;;;;18.27;54.02;102337.88;4993145;28;8851;-65
2022/07/15 05:54:20;;;;;;;;;0.00;0.00;;;;;18.46;53.12;102338.06;4976707;28;8856;-66
2022/07/15 05:56:46;;;;;;;;;0.00;0.00;;;;;18.62;53.29;102340.38;4976401;28;8825;-66
2022/07/15 05:59:19;;;;;;;;;0.00;0.00;;;;;18.77;52.32;102332.00;4991625;28;8872;-66
2022/07/15 06:01:46;;;;;;;;;0.00;0.00;;;;;18.86;51.81;102333.44;4981739;28;8841;-67
2022/07/15 06:04:13;;;;;;;;;1.00;1.00;;;;;18.92;52.03;102340.78;4976447;28;8907;-67
2022/07/15 06:06:43;;;;;;;;;0.00;0.00;;;;;18.93;51.83;102338.91;4975643;28;8860;-67
2022/07/15 06:09:09;;;;;;;;;0.75;0.00;;;;;18.96;52.06;102335.75;4976106;28;8934;-66
2022/07/15 06:11:37;;;;;;;;;1.00;0.50;;;;;18.96;51.53;102338.47;4976528;28;8809;-66
2022/07/15 06:14:05;;;;;;;;;0.50;0.50;;;;;18.93;51.37;102328.81;4986834;28;8847;-66
2022/07/15 06:16:31;;;;;;;;;1.00;0.00;;;;;18.89;51.20;102335.75;4990712;28;8829;-66
2022/07/15 06:18:59;;;;;;;;;0.00;0.00;;;;;18.88;51.27;102335.94;4989789;28;8860;-67
2022/07/15 06:21:26;;;;;;;;;0.00;0.00;;;;;18.88;51.11;102338.69;4991054;28;8883;-67
2022/07/15 06:23:52;;;;;;;;;2.00;1.00;;;;;18.87;51.92;102343.31;4975859;28;8833;-67
2022/07/15 06:26:19;;;;;;;;;0.75;0.00;;;;;18.82;51.72;102343.09;4993482;28;8859;-67
2022/07/15 06:28:46;;;;;;;;;2.00;1.00;;;;;18.79;51.54;102340.78;4975295;28;8839;-66
2022/07/15 06:31:19;;;;;;;;;1.50;0.00;;;;;18.78;51.80;102336.41;4993719;28;8852;-66
2022/07/15 06:33:46;;;;;;;;;0.00;0.00;;;;;18.79;51.38;102340.78;4975786;28;8853;-67
2022/07/15 06:36:13;;;;;;;;;0.75;0.75;;;;;18.80;51.43;102338.91;4975753;28;8852;-67
2022/07/15 06:38:44;;;;;;;;;0.75;0.00;;;;;18.76;51.65;102339.34;4990164;28;8817;-66
2022/07/15 06:41:11;;;;;;;;;0.00;0.00;;;;;18.72;51.56;102334.53;4980344;28;8866;-65
2022/07/15 06:43:38;;;;;;;;;0.00;0.00;;;;;18.70;52.11;102347.53;4969831;28;8863;-65
2022/07/15 06:46:09;;;;;;;;;0.00;0.00;;;;;18.74;51.10;102344.16;4977034;28;8836;-66
2022/07/15 06:48:39;;;;;;;;;2.50;1.00;;;;;18.68;50.59;102345.00;4983857;28;8825;-67
2022/07/15 06:51:06;;;;;;;;;0.25;0.25;;;;;18.64;50.44;102349.19;4995185;28;8829;-66
2022/07/15 06:53:33;;;;;;;;;0.00;0.00;;;;;18.57;50.15;102345.63;4995896;28;8955;-67
2022/07/15 06:56:00;;;;;;;;;0.00;0.00;;;;;18.53;50.07;102347.09;4978080;28;8848;-67
2022/07/15 06:58:27;;;;;;;;;1.00;0.50;;;;;18.52;50.45;102346.25;4977320;28;8841;-67
2022/07/15 07:00:55;;;;;;;;;1.00;1.00;;;;;18.53;49.30;102352.56;4989057;28;8852;-66
2022/07/15 07:03:22;;;;;;;;;0.00;0.00;;;;;18.49;48.92;102362.22;4969127;28;8849;-66
2022/07/15 07:06:09;;;;;;;;;0.00;0.00;;;;;18.51;49.01;102357.38;4990157;28;8836;-67
2022/07/15 07:08:35;;;;;;;;;0.00;0.00;;;;;18.51;48.94;102354.63;4994826;28;8857;-66
2022/07/15 07:11:02;;;;;;;;;0.00;0.00;;;;;18.51;48.70;102354.63;4995053;28;9528;-67
2022/07/15 07:13:28;;;;;;;;;0.00;0.00;;;;;18.45;49.41;102360.94;4992885;28;8871;-68
2022/07/15 07:15:54;;;;;;;;;1.00;0.00;;;;;18.37;49.42;102352.97;4992669;28;8872;-66
2022/07/15 07:18:21;;;;;;;;;0.00;0.00;;;;;18.36;48.89;102359.47;4992500;28;8912;-66
2022/07/15 07:20:48;;;;;;;;;0.00;0.00;;;;;18.35;49.15;102355.91;4976078;28;8864;-69
2022/07/15 07:23:14;;;;;;;;;0.00;0.00;;;;;18.34;49.26;102354.22;4975235;28;8870;-68
2022/07/15 07:25:41;;;;;;;;;0.75;0.00;;;;;18.36;50.07;102363.03;4979865;28;8934;-66
2022/07/15 07:28:08;;;;;;;;;0.00;0.00;;;;;18.36;50.15;102354.88;4990818;28;9007;-68
2022/07/15 07:30:34;;;;;;;;;0.00;0.00;;;;;18.30;49.85;102361.13;4987118;28;8883;-65
2022/07/15 07:33:01;;;;;;;;;0.25;0.00;;;;;18.31;49.04;102361.97;4978063;28;8890;-67
2022/07/15 07:35:27;;;;;;;;;1.25;0.00;;;;;18.31;49.14;102362.84;4986593;28;8829;-66
2022/07/15 07:37:54;;;;;;;;;0.00;0.00;;;;;18.36;49.15;102362.22;4969420;28;8947;-66
2022/07/15 07:40:20;;;;;;;;;0.00;0.00;;;;;18.42;48.62;102358.63;4969716;28;8982;-66
2022/07/15 07:42:47;;;;;;;;;0.00;0.00;;;;;18.44;48.20;102356.56;4984625;28;8943;-65
2022/07/15 07:45:13;;;;;;;;;0.00;0.00;;;;;18.48;48.17;102357.81;4985717;28;8837;-65
2022/07/15 07:47:40;;;;;;;;;0.00;0.00;;;;;18.49;47.84;102354.03;4988324;28;8844;-66
2022/07/15 07:50:08;;;;;;;;;0.00;0.00;;;;;18.50;47.39;102348.34;4988075;28;8856;-65
2022/07/15 07:52:34;;;;;;;;;0.00;0.00;;;;;18.55;47.80;102345.00;4987499;28;8831;-67
2022/07/15 07:55:01;;;;;;;;;0.00;0.00;;;;;18.61;47.53;102354.22;4987395;28;8848;-66
2022/07/15 07:57:27;;;;;;;;;1.00;0.00;;;;;18.65;47.11;102350.88;4982129;28;8876;-65
2022/07/15 07:59:54;;;;;;;;;0.50;0.50;;;;;18.67;46.36;102356.94;4986954;28;8982;-68
2022/07/15 08:02:20;;;;;;;;;0.00;0.00;;;;;18.66;45.42;102347.09;4988267;28;8840;-66
2022/07/15 08:04:47;;;;;;;;;0.00;0.00;;;;;18.67;45.60;102356.09;4988157;28;8875;-67
2022/07/15 08:07:14;;;;;;;;;0.00;0.00;;;;;18.70;46.13;102361.16;4986751;28;8949;-65
2022/07/15 08:09:41;;;;;;;;;0.00;0.00;;;;;18.76;46.43;102369.38;4984409;28;8844;-65
2022/07/15 08:12:07;;;;;;;;;0.00;0.00;;;;;18.80;46.69;102360.72;4989043;28;8978;-65
2022/07/15 08:14:34;;;;;;;;;0.00;0.00;;;;;18.85;46.83;102359.06;4985280;28;8830;-67
2022/07/15 08:17:00;;;;;;;;;0.00;0.00;;;;;18.86;45.96;102357.16;4985720;28;8840;-68
2022/07/15 08:19:27;;;;;;;;;0.00;0.00;;;;;18.89;45.89;102362.22;4983854;28;8829;-66
2022/07/15 08:21:54;;;;;;;;;0.00;0.00;;;;;18.91;46.03;102355.47;4975013;28;8860;-66
2022/07/15 08:24:20;;;;;;;;;0.75;0.00;;;;;18.88;46.35;102355.91;4991654;28;8844;-66
2022/07/15 08:26:47;;;;;;;;;0.00;0.00;;;;;18.82;47.04;102356.75;4986440;28;8852;-65
2022/07/15 08:29:13;;;;;;;;;0.00;0.00;;;;;18.79;47.87;102351.72;4991137;28;9516;-66
2022/07/15 08:31:40;;;;;;;;;0.00;0.00;;;;;18.77;48.27;102351.94;4973654;28;8847;-66
2022/07/15 08:34:08;;;;;;;;;0.00;0.00;;;;;18.74;48.36;102365.16;4981965;28;8925;-67
2022/07/15 08:36:34;;;;;;;;;0.00;0.00;;;;;18.73;48.83;102361.59;4985876;28;8856;-66
2022/07/15 08:39:01;;;;;;;;;1.00;1.00;;;;;18.69;48.93;102354.84;4977184;28;8869;-66
2022/07/15 08:41:29;;;;;;;;;0.00;0.00;;;;;18.67;49.18;102354.22;4990909;28;8849;-67
2022/07/15 08:43:55;;;;;;;;;0.25;0.25;;;;;18.67;49.04;102351.47;4986684;28;8860;-67
2022/07/15 08:46:25;;;;;;;;;1.00;1.00;;;;;18.73;49.15;102363.50;4985185;28;8841;-67
2022/07/15 08:48:58;;;;;;;;;0.25;0.25;;;;;18.82;48.39;102358.66;4983136;28;8840;-67
2022/07/15 08:51:25;;;;;;;;;1.00;0.75;;;;;18.89;48.34;102354.84;4984780;28;9649;-67
2022/07/15 08:53:52;;;;;;;;;0.00;0.00;;;;;18.98;48.10;102355.47;4968214;28;8878;-67
2022/07/15 08:56:19;;;;;;;;;2.50;1.25;;;;;18.99;47.88;102357.97;4966011;28;8858;-67
2022/07/15 08:58:46;;;;;;;;;0.00;0.00;;;;;18.98;48.16;102344.56;4968798;28;8866;-66
2022/07/15 09:01:29;;;;;;;;;2.00;0.75;;;;;19.02;47.62;102345.81;4982989;28;8828;-66
2022/07/15 09:03:56;;;;;;;;;0.75;0.75;;;;;19.07;46.70;102348.72;4983458;28;8860;-67
2022/07/15 09:06:34;;;;;;;;;1.00;1.00;;;;;19.09;46.15;102351.25;4985452;28;8986;-67
2022/07/15 09:09:36;;;;;;;;;0.00;0.00;;;;;19.06;46.92;102351.66;4981691;28;8840;-67
2022/07/15 09:12:07;;;;;;;;;0.00;0.00;;;;;19.08;47.47;102349.56;4965069;28;9492;-67
2022/07/15 09:14:42;;;;;;;;;0.00;0.00;;;;;19.06;47.81;102344.31;4982942;28;8856;-67
2022/07/15 09:17:09;;;;;;;;;0.25;0.00;;;;;19.05;47.57;102350.84;4983128;28;8927;-68
2022/07/15 09:20:06;;;;;;;;;0.00;0.00;;;;;18.99;47.39;102335.31;4980714;28;8847;-67
2022/07/15 09:22:47;;;;;;;;;0.00;0.00;;;;;18.96;47.57;102339.31;4964343;28;8962;-68
2022/07/15 09:25:14;;;;;;;;;0.00;0.00;;;;;18.97;47.54;102338.25;4985717;28;8824;-66
2022/07/15 09:27:43;;;;;;;;;0.00;0.00;;;;;19.06;47.90;102335.28;4982743;28;9639;-67
2022/07/15 09:33:37;;;;;;;;;0.00;0.00;;;;;19.15;48.26;102326.66;4983633;28;9011;-68
2022/07/15 09:36:06;;;;;;;;;0.00;0.00;;;;;19.21;48.04;102328.53;4950206;28;8869;-67
2022/07/15 09:38:33;;;;;;;;;0.00;0.00;;;;;19.24;47.55;102333.56;4984369;28;8841;-67
2022/07/15 09:41:01;;;;;;;;;0.00;0.00;;;;;19.26;47.20;102323.25;4983004;28;8840;-67
2022/07/15 09:43:28;;;;;;;;;0.00;0.00;;;;;19.25;46.40;102324.31;4982225;28;8848;-67
2022/07/15 09:46:00;;;;;;;;;0.00;0.00;;;;;19.24;45.26;102338.16;4985242;28;8847;-67
2022/07/15 09:48:31;;;;;;;;;0.00;0.00;;;;;19.27;45.91;102329.53;4986890;28;8853;-68
2022/07/15 09:50:59;;;;;;;;;0.00;0.00;;;;;19.29;45.70;102329.34;4989447;28;8828;-66
2022/07/15 09:53:27;;;;;;;;;0.00;0.00;;;;;19.30;46.12;102331.84;4989996;28;8926;-67
2022/07/15 09:55:53;;;;;;;;;0.00;0.00;;;;;19.29;46.44;102332.09;4990089;28;8951;-67
2022/07/15 09:58:21;;;;;;;;;0.00;0.00;;;;;19.23;45.95;102331.03;4989647;28;8950;-67
2022/07/15 10:00:47;;;;;;;;;0.00;0.00;;;;;19.25;45.40;102332.50;4987867;28;8848;-68
2022/07/15 10:03:16;;;;;;;;;0.00;0.00;;;;;19.35;45.39;102323.00;4984162;28;8967;-68
2022/07/15 10:05:43;;;;;;;;;0.00;0.00;;;;;19.47;45.25;102322.09;4983139;28;8841;-67
2022/07/15 10:08:13;;;;;;;;;0.75;0.00;;;;;19.65;45.04;102317.88;4984531;28;8852;-66
2022/07/15 10:10:40;;;;;;;;;0.00;0.00;;;;;19.74;45.12;102316.56;4983205;28;8969;-66
2022/07/15 10:13:12;;;;;;;;;0.00;0.00;;;;;19.78;44.87;102315.06;4981222;28;8955;-68
2022/07/15 10:16:18;;;;;;;;;0.00;0.00;;;;;19.80;44.47;102314.81;4981324;28;8844;-68
2022/07/15 10:19:00;;;;;;;;;0.00;0.00;;;;;19.81;45.04;102322.81;4924176;29;8841;-67
2022/07/15 10:21:36;;;;;;;;;0.00;0.00;;;;;19.82;44.59;102320.91;4980958;28;8942;-68
2022/07/15 10:24:27;;;;;;;;;0.00;0.00;;;;;19.87;44.40;102318.34;4967853;28;9505;-67
2022/07/15 10:27:22;;;;;;;;;0.25;0.00;;;;;19.98;44.67;102323.13;4984717;28;8933;-68
2022/07/15 10:29:50;;;;;;;;;0.00;0.00;;;;;19.98;44.12;102326.69;4987169;28;8829;-66
2022/07/15 10:32:16;;;;;;;;;0.00;0.00;;;;;20.02;44.01;102327.09;4988515;28;8942;-67
2022/07/15 10:34:43;;;;;;;;;1.00;0.00;;;;;19.99;44.11;102309.22;4986753;28;8941;-67
2022/07/15 10:37:12;;;;;;;;;0.00;0.00;;;;;19.97;44.08;102305.88;4987863;28;8884;-66
2022/07/15 10:39:53;;;;;;;;;0.00;0.00;;;;;19.97;43.59;102296.81;4989915;28;8938;-66
2022/07/15 10:42:20;;;;;;;;;0.00;0.00;;;;;19.91;44.02;102290.34;4990316;28;8863;-66
2022/07/15 10:44:59;;;;;;;;;0.00;0.00;;;;;19.89;44.00;102288.91;4988076;28;9536;-67
2022/07/15 10:47:26;;;;;;;;;0.25;0.25;;;;;19.97;43.93;102289.50;4986063;28;8848;-67
2022/07/15 10:49:53;;;;;;;;;0.25;0.00;;;;;20.09;43.92;102292.31;4988803;28;8848;-66
2022/07/15 10:52:22;;;;;;;;;1.00;1.00;;;;;20.23;43.84;102287.59;4986824;28;8852;-66
2022/07/15 10:55:11;;;;;;;;;0.00;0.00;;;;;20.30;42.91;102284.81;4986192;28;8840;-66
2022/07/15 10:57:40;;;;;;;;;0.00;0.00;;;;;20.29;42.65;102294.88;4982806;28;8835;-66
2022/07/15 11:00:28;;;;;;;;;1.00;1.00;;;;;20.24;43.25;102295.56;4986721;28;8880;-66
2022/07/15 11:03:07;;;;;;;;;1.00;0.00;;;;;20.29;43.36;102288.59;4984996;28;8899;-66
2022/07/15 11:05:41;;;;;;;;;0.00;0.00;;;;;20.25;43.10;102283.59;4986336;28;8832;-66
2022/07/15 11:08:36;;;;;;;;;0.00;0.00;;;;;20.32;43.77;102288.97;4985945;28;8945;-66
2022/07/15 11:11:29;;;;;;;;;1.50;0.50;;;;;20.34;43.35;102294.25;4986626;28;8926;-66
2022/07/15 11:13:56;;;;;;;;;1.00;0.00;;;;;20.32;43.73;102288.16;4984698;28;9073;-66
2022/07/15 11:16:23;;;;;;;;;0.00;0.00;;;;;20.29;43.48;102286.69;4986106;28;8959;-66
2022/07/15 11:18:52;;;;;;;;;2.00;0.50;;;;;20.29;43.80;102291.31;4984140;28;8852;-66
2022/07/15 11:21:22;;;;;;;;;0.00;0.00;;;;;20.30;44.16;102287.56;4987765;28;8883;-66
2022/07/15 11:23:50;;;;;;;;;0.00;0.00;;;;;20.29;44.61;102291.31;4988402;28;8833;-66
2022/07/15 11:26:18;;;;;;;;;1.00;1.00;;;;;20.25;44.62;102291.78;4987443;28;8828;-67
2022/07/15 11:28:50;;;;;;;;;1.00;1.00;;;;;20.22;44.60;102286.75;4983915;28;8828;-67
2022/07/15 11:31:16;;;;;;;;;0.75;0.75;;;;;20.17;45.06;102278.38;4986097;28;8856;-65
2022/07/15 11:33:43;;;;;;;;;0.50;0.00;;;;;20.15;45.59;102285.13;4986475;28;8848;-66
2022/07/15 11:36:17;;;;;;;;;1.00;1.00;;;;;20.21;45.41;102273.28;4986330;28;8910;-65
2022/07/15 11:38:44;;;;;;;;;1.75;0.75;;;;;20.32;44.99;102282.69;4986705;28;8848;-66
2022/07/15 11:46:59;;;;;;;;;0.50;0.00;;;;;20.44;45.13;102280.88;4985339;28;8966;-65
2022/07/15 11:49:29;;;;;;;;;0.25;0.25;;;;;20.46;45.33;102279.59;4982314;28;9579;-65
2022/07/15 11:51:57;;;;;;;;;0.00;0.00;;;;;20.63;45.03;102268.09;4982070;28;8868;-64
2022/07/15 11:54:25;;;;;;;;;1.00;1.00;;;;;20.79;44.01;102267.50;4986968;28;8820;-66
2022/07/15 11:57:00;;;;;;;;;1.00;1.00;;;;;20.86;44.00;102257.28;4969368;28;9536;-66
2022/07/15 11:59:27;;;;;;;;;1.00;1.00;;;;;20.98;43.49;102269.19;4977323;28;9602;-68